Nearby METAR Reports

 

EHAM - Amsterdam/Schiph, Netherlands
Distance from station: WNW 24km
Updated: 19/11/2017 18:25
Light rain, Showers, Partly cloudy
Light rain, Showers, Partly cloudy
 Wind from WNW
Wind: WNW 26 km/h
Temperature: 8°C
Wind Chill: 4°C
Dew Point: 4°C
Humidity: 76%
Summary: Light rain, Showers
Clouds: Partly cloudy
Visibility: 10 km
Cloud details: Few Clouds 671 m
Partly cloudy 1311 m
2017/11/19 17:25 EHAM 191725Z 29014KT 270V330 9999 -SHRA FEW022CB SCT043 08/04 Q10
EHDL - Deelen Rnlafb, Netherlands
Distance from station: ESE 55km
Updated: 19/11/2017 18:25
Few Clouds
Few Clouds
 Wind from WSW
Wind: WSW 9 km/h
Temperature: 3°C
Wind Chill: 0°C
Dew Point: 3°C
Humidity: 100%
Barometer: 1019 hPa
Clouds: Few Clouds
Visibility: 10 km
Cloud details: Few Clouds 1311 m
2017/11/19 17:25 EHDL 191725Z AUTO 25005KT 220V280 9999 FEW043 03/03 Q1019 BLU
EHRD - Rotterdam Airpor, Netherlands
Distance from station: SW 55km
Updated: 19/11/2017 18:25
Few Clouds
Few Clouds
 Wind from WNW
Wind: WNW 20 km/h
Temperature: 7°C
Wind Chill: 4°C
Dew Point: 4°C
Humidity: 81%
Barometer: 1020 hPa
Clouds: Few Clouds
Visibility: 10 km
Cloud details: Few Clouds 457 m
2017/11/19 17:25 EHRD 191725Z AUTO 29011KT 260V330 9999 FEW015CB 07/04 Q1020 NOSIG
 
EHGR - Gilze-Rijen Rnla, Netherlands
Distance from station: S 75km
Updated: 19/11/2017 18:25
Mostly cloudy
Mostly cloudy
 Wind from W
Wind: W 9 km/h
Temperature: 6°C
Wind Chill: 4°C
Dew Point: 4°C
Humidity: 87%
Barometer: 1020 hPa
Clouds: Mostly cloudy
Visibility: 10 km
Cloud details: Partly cloudy 671 m
Mostly cloudy 7620 m
2017/11/19 17:25 EHGR 191725Z AUTO 26005KT 9999 SCT022 BKN250 06/04 Q1020 WHT
EHVK - Volkel Rnlafb, Netherlands
Distance from station: SSE 78km
Updated: 19/11/2017 18:25
Mostly cloudy
Mostly cloudy
 Wind from W
Wind: W 9 km/h
Temperature: 7°C
Wind Chill: 6°C
Dew Point: 4°C
Humidity: 81%
Barometer: 1019 hPa
Clouds: Mostly cloudy
Visibility: 10 km
Cloud details: Few Clouds 884 m
Mostly cloudy 975 m
Mostly cloudy 1219 m
2017/11/19 17:25 EHVK 191725Z AUTO 28005KT 240V310 9999 FEW029 BKN032 BKN040 07/04 Q1019 BLU
EHKD - De Kooy (navy), Netherlands
Distance from station: NNW 80km
Updated: 19/11/2017 18:25
Light rain
Light rain
 Wind from NW
Wind: NW 22 km/h
Temperature: 8°C
Wind Chill: 4°C
Dew Point: 5°C
Humidity: 82%
Barometer: 1018 hPa
Summary: Light rain
Visibility: 10 km
2017/11/19 17:25 EHKD 191725Z AUTO 31012KT 280V350 9999 -RA ////// 08/05 Q1018 BLU 31014G24KT 9999 FEW030 TEMPO 32022G32KT 4000 SHRA FEW018 SCT020CB
 
EHEH - Eindhoven Rnlafb, Netherlands
Distance from station: SSE 89km
Updated: 19/11/2017 18:25
Partly cloudy
Partly cloudy
 Wind from WSW
Wind: WSW 13 km/h
Temperature: 5°C
Wind Chill: 2°C
Dew Point: 4°C
Humidity: 93%
Barometer: 1020 hPa
Clouds: Partly cloudy
Visibility: 10 km
Cloud details: Partly cloudy 975 m
2017/11/19 17:25 EHEH 191725Z AUTO 24007KT 9999 SCT032 05/04 Q1020 BLU 27007KT 9999 FEW030 TEMPO FEW020CB SCT030
EDLV - Niederrhein, Germany
Distance from station: SE 100km
Updated: 19/11/2017 18:20
Few Clouds
Few Clouds
 Wind from W
Wind: W 13 km/h
Temperature: 6°C
Wind Chill: 3°C
Dew Point: 4°C
Humidity: 87%
Barometer: 1019 hPa
Clouds: Few Clouds
Visibility: 10 km
Cloud details: Few Clouds 610 m
2017/11/19 17:20 EDLV 191720Z 28007KT 9999 FEW020 06/04 Q1019
EHQE - Hoorn-A Sea, Netherlands
Distance from station: NW 100km
Updated: 19/11/2017 18:25
Mostly cloudy
Mostly cloudy
 Wind from NW
Wind: NW 50 km/h
Temperature: 9°C
Wind Chill: 4°C
Dew Point: 3°C
Humidity: 66%
Barometer: 1018 hPa
Clouds: Mostly cloudy
Visibility: 10 km
Cloud details: Few Clouds 671 m
Partly cloudy 792 m
Mostly cloudy 1280 m
2017/11/19 17:25 EHQE 191725Z AUTO 31027KT 9999 FEW022 SCT026 BKN042 09/03 Q1018 RERA
 
EHWO - Woensdrecht Rnla, Netherlands
Distance from station: SSW 103km
Updated: 19/11/2017 18:25
Light drizzle, Mostly cloudy
Light drizzle, Mostly cloudy
 Wind from NW
Wind: NW 7 km/h
Temperature: 6°C
Wind Chill: 4°C
Dew Point: 5°C
Humidity: 93%
Barometer: 1021 hPa
Summary: Light Drizzle
Clouds: Mostly cloudy
Visibility: 10 km
Cloud details: Few Clouds 457 m
Partly cloudy 1006 m
Mostly cloudy 1219 m
2017/11/19 17:25 EHWO 191725Z AUTO 32004KT 270V020 9999 -DZ FEW015CB SCT033 BKN040 06/05 Q1021 REDZ BLU
EHSC - Goeree Le Sea, Netherlands
Distance from station: WSW 104km
Updated: 19/11/2017 17:55

 Wind from NW
Wind: NW 43 km/h, Gust: 50 km/h
Temperature: 9°C
Wind Chill: 4°C
Dew Point: 3°C
Humidity: 66%
Barometer: 1020 hPa
Visibility: 10 km
2017/11/19 16:55 EHSC 191655Z AUTO 31023G27KT 9999 ///////// 09/03 Q1020 W12/H21
EHVL - Vlieland Island, Netherlands
Distance from station: N 112km
Updated: 19/11/2017 18:25
Partly cloudy
Partly cloudy
 Wind from NW
Wind: NW 41 km/h
Temperature: 9°C
Wind Chill: 4°C
Dew Point: 4°C
Humidity: 71%
Barometer: 1017 hPa
Clouds: Partly cloudy
Visibility: 10 km
Cloud details: Partly cloudy 762 m
2017/11/19 17:25 EHVL 191725Z AUTO 31022KT 9999 SCT025 09/04 Q1017 REDZ BLU
 
EHLW - Leeuwarden Rnlaf, Netherlands
Distance from station: NNE 118km
Updated: 19/11/2017 18:25
Partly cloudy
Partly cloudy
 Wind from NW
Wind: NW 19 km/h
Temperature: 7°C
Wind Chill: 4°C
Dew Point: 3°C
Humidity: 76%
Barometer: 1016 hPa
Clouds: Partly cloudy
Visibility: 10 km
Cloud details: Partly cloudy 1128 m
Partly cloudy 1372 m
2017/11/19 17:25 EHLW 191725Z AUTO 31010KT 280V340 9999 SCT037 SCT045 07/03 Q1016 BLU
EBBL - Kleine-Brogel(Ba, Belgium
Distance from station: SSE 121km
Updated: 19/11/2017 17:55
Rain, Mostly cloudy
Rain, Mostly cloudy
 Wind from W
Wind: W 11 km/h
Temperature: 6°C
Wind Chill: 4°C
Dew Point: 4°C
Humidity: 87%
Barometer: 1021 hPa
Summary: Rain
Clouds: Mostly cloudy
Visibility: 9 km
Cloud details: Mostly cloudy 701 m
Mostly cloudy 2042 m
2017/11/19 16:55 EBBL 191655Z AUTO 27006KT 9000 RA BKN023/// BKN067/// 06/04 Q1021 WHT
EHPG - P11-B Sea, Netherlands
Distance from station: W 121km
Updated: 19/11/2017 18:25
Light rain, Mostly cloudy
Light rain, Mostly cloudy
 Wind from W
Wind: W 28 km/h
Summary: Light rain
Clouds: Mostly cloudy
Visibility: 10 km
Cloud details: Few Clouds 396 m
Partly cloudy 762 m
Mostly cloudy 1311 m
2017/11/19 17:25 EHPG 191725Z AUTO 28015KT 230V320 9999 -RA FEW013 SCT025 BKN043 09/// Q1020
 
EBAW - Antwerp/Deurne, Belgium
Distance from station: SSW 123km
Updated: 19/11/2017 18:20
Partly cloudy
Partly cloudy
 Wind from W
Wind: W 11 km/h
Temperature: 7°C
Wind Chill: 5°C
Dew Point: 3°C
Humidity: 76%
Barometer: 1022 hPa
Clouds: Partly cloudy
Visibility: 10 km
Cloud details: Few Clouds 792 m
Partly cloudy 1433 m
2017/11/19 17:20 EBAW 191720Z 27006KT 9999 FEW026 SCT047 07/03 Q1022 NOSIG
EHSA - Euro Platform, Netherlands
Distance from station: W 127km
Updated: 19/11/2017 17:55

 Wind from WNW
Wind: WNW 39 km/h, Gust: 46 km/h
Temperature: 9°C
Wind Chill: 4°C
Dew Point: 2°C
Humidity: 62%
Barometer: 1021 hPa
Visibility: 10 km
2017/11/19 16:55 EHSA 191655Z AUTO 29021G25KT 9999 ///////// 09/02 Q1021 W13/H23
EBDT - Schaffen, Belgium
Distance from station: S 135km
Updated: 19/11/2017 17:55
Mostly cloudy
Mostly cloudy
 Wind from W
Wind: W 15 km/h
Temperature: 6°C
Wind Chill: 3°C
Dew Point: 3°C
Humidity: 81%
Barometer: 1021 hPa
Clouds: Mostly cloudy
Visibility: 10 km
Cloud details: Few Clouds 1280 m
Mostly cloudy 1463 m
2017/11/19 16:55 EBDT 191655Z AUTO 28008KT 9999 FEW042/// BKN048/// 06/03 Q1021 BLU
 
EHFS - Vlissingen, Netherlands
Distance from station: SW 135km
Updated: 19/11/2017 17:55
Overcast
Overcast
 Wind from WNW
Wind: WNW 22 km/h
Temperature: 9°C
Wind Chill: 6°C
Dew Point: 3°C
Humidity: 66%
Barometer: 1021 hPa
Clouds: Overcast
Visibility: 10 km
Cloud details: Mostly cloudy 823 m
Mostly cloudy 945 m
Overcast 1402 m
2017/11/19 16:55 EHFS 191655Z AUTO 29012KT 9999 BKN027/// BKN031/// OVC046/// 09/03 Q1021
EHGG - Groningen/Eelde, Netherlands
Distance from station: NE 139km
Updated: 19/11/2017 18:25
Partly cloudy
Partly cloudy
 Wind from WNW
Wind: WNW 13 km/h
Temperature: 6°C
Wind Chill: 3°C
Dew Point: 3°C
Humidity: 81%
Barometer: 1015 hPa
Clouds: Partly cloudy
Visibility: 10 km
Cloud details: Few Clouds 975 m
Partly cloudy 1189 m
2017/11/19 17:25 EHGG 191725Z AUTO 30007KT 270V340 9999 FEW032 SCT039 06/03 Q1015 TEMPO 7000 -SHRA FEW025TCU